PWSweather.com
Personal Weather Stations
Station Observations
BRISTOL
HorfieldFilton, BristolGB BS7

HorfieldFiltonBristolGB BS7

Lat: 51.5, Lon: -2.576

Elevation: 272

Station Type: Davis VP2

http://www.martynhicks.co.uk/weather/data.php

Latest ConditionsUpdated 6:30:02 PM GMT Saturday, Dec 20, 2014
Currently Today's Max Today's Min Today's Average
Temperature 45.4°F7.4°C 48.1°F8.9°C 44.7°F7.1°C 46.5°F8.1°C
Dew Point 40.8°F4.9°C 41.7°F5.4°C 38.9°F3.8°C 40.3°F4.6°C
Winds 6.5 mph W10.5 kmh W 13.9 mph W22.4 kmh W - 7.3 mph 11.7 kmh
Wind Gusts 9.0 mph14.5 kmh 32.0 mph51.5 kmh - -
Humidity 84% 84% 76% 79%
Pressure 30.45 in1031.2 mb 30.45 in1031.2 mb 30.24 in1024.0 mb -
Hour Temp Dew Point Humidity Winds Wind Gusts Pressure Precip Precip Rate Daily Precip Total
06:30 PM 45.4°F7.4°C 40.8°F4.9°C 84% 6.5 mph W10.5 kmh W 9.0 mph14.5 kmh 30.45 in1031.2 mb 0.00 in0.0 mm 0.00 in/hr0.0 mm/hr 0.00 in0.0 mm
06:20 PM 45.4°F7.4°C 40.8°F4.9°C 84% 4.8 mph W7.7 kmh W 8.0 mph12.9 kmh 30.45 in1031.2 mb 0.00 in0.0 mm 0.00 in/hr0.0 mm/hr 0.00 in0.0 mm
06:10 PM 45.7°F7.6°C 41.1°F5.1°C 84% 5.9 mph W9.5 kmh W 8.0 mph12.9 kmh 30.45 in1031.2 mb 0.00 in0.0 mm 0.00 in/hr0.0 mm/hr 0.00 in0.0 mm
06:00 PM 45.6°F7.6°C 41.1°F5.1°C 84% 3.6 mph W5.8 kmh W 7.0 mph11.3 kmh 30.45 in1031.2 mb 0.00 in0.0 mm 0.00 in/hr0.0 mm/hr 0.00 in0.0 mm
05:50 PM 45.7°F7.6°C 41.2°F5.1°C 84% 3.1 mph W5.0 kmh W 7.0 mph11.3 kmh 30.45 in1031.2 mb 0.00 in0.0 mm 0.00 in/hr0.0 mm/hr 0.00 in0.0 mm
05:40 PM 46.2°F7.9°C 41.0°F5.0°C 82% 3.7 mph W6.0 kmh W 9.0 mph14.5 kmh 30.44 in1030.8 mb 0.00 in0.0 mm 0.00 in/hr0.0 mm/hr 0.00 in0.0 mm
05:30 PM 46.6°F8.1°C 41.1°F5.1°C 81% 2.6 mph WSW4.2 kmh WSW 7.0 mph11.3 kmh 30.44 in1030.8 mb 0.00 in0.0 mm 0.00 in/hr0.0 mm/hr 0.00 in0.0 mm
05:20 PM 46.6°F8.1°C 41.1°F5.1°C 81% 4.3 mph WSW6.9 kmh WSW 6.0 mph9.7 kmh 30.44 in1030.8 mb 0.00 in0.0 mm 0.00 in/hr0.0 mm/hr 0.00 in0.0 mm
05:10 PM 46.5°F8.1°C 40.3°F4.6°C 79% 3.5 mph W5.6 kmh W 9.0 mph14.5 kmh 30.43 in1030.5 mb 0.00 in0.0 mm 0.00 in/hr0.0 mm/hr 0.00 in0.0 mm
05:00 PM 46.5°F8.1°C 40.3°F4.6°C 79% 4.2 mph W6.8 kmh W 8.0 mph12.9 kmh 30.43 in1030.5 mb 0.00 in0.0 mm 0.00 in/hr0.0 mm/hr 0.00 in0.0 mm
04:50 PM 46.5°F8.1°C 40.3°F4.6°C 79% 6.0 mph W9.7 kmh W 12.0 mph19.3 kmh 30.43 in1030.5 mb 0.00 in0.0 mm 0.00 in/hr0.0 mm/hr 0.00 in0.0 mm
04:40 PM 47.0°F8.3°C 40.5°F4.7°C 78% 6.3 mph W10.1 kmh W 10.0 mph16.1 kmh 30.43 in1030.5 mb 0.00 in0.0 mm 0.00 in/hr0.0 mm/hr 0.00 in0.0 mm
04:30 PM 47.2°F8.4°C 40.7°F4.8°C 78% 9.0 mph W14.5 kmh W 12.0 mph19.3 kmh 30.42 in1030.1 mb 0.00 in0.0 mm 0.00 in/hr0.0 mm/hr 0.00 in0.0 mm
04:20 PM 47.3°F8.5°C 40.8°F4.9°C 78% 5.0 mph WNW8.0 kmh WNW 10.0 mph16.1 kmh 30.42 in1030.1 mb 0.00 in0.0 mm 0.00 in/hr0.0 mm/hr 0.00 in0.0 mm
04:10 PM 47.3°F8.5°C 40.8°F4.9°C 78% 2.8 mph W4.5 kmh W 8.0 mph12.9 kmh 30.42 in1030.1 mb 0.00 in0.0 mm 0.00 in/hr0.0 mm/hr 0.00 in0.0 mm
04:00 PM 47.5°F8.6°C 41.0°F5.0°C 78% 5.3 mph W8.5 kmh W 8.0 mph12.9 kmh 30.41 in1029.8 mb 0.00 in0.0 mm 0.00 in/hr0.0 mm/hr 0.00 in0.0 mm
03:50 PM 47.6°F8.7°C 41.1°F5.1°C 78% 3.7 mph WSW6.0 kmh WSW 7.0 mph11.3 kmh 30.41 in1029.8 mb 0.00 in0.0 mm 0.00 in/hr0.0 mm/hr 0.00 in0.0 mm
03:40 PM 47.7°F8.7°C 41.2°F5.1°C 78% 1.4 mph W2.3 kmh W 3.0 mph4.8 kmh 30.41 in1029.8 mb 0.00 in0.0 mm 0.00 in/hr0.0 mm/hr 0.00 in0.0 mm
03:30 PM 47.7°F8.7°C 40.8°F4.9°C 77% 2.1 mph WSW3.4 kmh WSW 4.0 mph6.4 kmh 30.41 in1029.8 mb 0.00 in0.0 mm 0.00 in/hr0.0 mm/hr 0.00 in0.0 mm
03:20 PM 47.8°F8.8°C 41.3°F5.2°C 78% 0.9 mph W1.4 kmh W 7.0 mph11.3 kmh 30.40 in1029.5 mb 0.00 in0.0 mm 0.00 in/hr0.0 mm/hr 0.00 in0.0 mm
03:10 PM 47.9°F8.8°C 41.0°F5.0°C 77% 4.3 mph W6.9 kmh W 9.0 mph14.5 kmh 30.39 in1029.1 mb 0.00 in0.0 mm 0.00 in/hr0.0 mm/hr 0.00 in0.0 mm
03:00 PM 48.1°F8.9°C 40.9°F4.9°C 76% 3.0 mph W4.8 kmh W 6.0 mph9.7 kmh 30.39 in1029.1 mb 0.00 in0.0 mm 0.00 in/hr0.0 mm/hr 0.00 in0.0 mm
02:50 PM 48.1°F8.9°C 41.2°F5.1°C 77% 3.2 mph W5.1 kmh W 6.0 mph9.7 kmh 30.39 in1029.1 mb 0.00 in0.0 mm 0.00 in/hr0.0 mm/hr 0.00 in0.0 mm
02:40 PM 48.1°F8.9°C 41.2°F5.1°C 77% 3.1 mph W5.0 kmh W 8.0 mph12.9 kmh 30.39 in1029.1 mb 0.00 in0.0 mm 0.00 in/hr0.0 mm/hr 0.00 in0.0 mm
02:30 PM 48.0°F8.9°C 40.8°F4.9°C 76% 2.0 mph WNW3.2 kmh WNW 8.0 mph12.9 kmh 30.39 in1029.1 mb 0.00 in0.0 mm 0.00 in/hr0.0 mm/hr 0.00 in0.0 mm
02:20 PM 47.9°F8.8°C 41.7°F5.4°C 79% 4.2 mph WNW6.8 kmh WNW 11.0 mph17.7 kmh 30.39 in1029.1 mb 0.00 in0.0 mm 0.00 in/hr0.0 mm/hr 0.00 in0.0 mm
02:10 PM 48.0°F8.9°C 41.5°F5.3°C 78% 4.5 mph WNW7.2 kmh WNW 6.0 mph9.7 kmh 30.39 in1029.1 mb 0.00 in0.0 mm 0.00 in/hr0.0 mm/hr 0.00 in0.0 mm
02:00 PM 47.8°F8.8°C 41.6°F5.3°C 79% 4.4 mph W7.1 kmh W 12.0 mph19.3 kmh 30.38 in1028.8 mb 0.00 in0.0 mm 0.00 in/hr0.0 mm/hr 0.00 in0.0 mm
01:50 PM 47.7°F8.7°C 41.5°F5.3°C 79% 3.4 mph W5.5 kmh W 7.0 mph11.3 kmh 30.38 in1028.8 mb 0.00 in0.0 mm 0.00 in/hr0.0 mm/hr 0.00 in0.0 mm
01:40 PM 47.7°F8.7°C 41.2°F5.1°C 78% 3.7 mph W6.0 kmh W 6.0 mph9.7 kmh 30.38 in1028.8 mb 0.00 in0.0 mm 0.00 in/hr0.0 mm/hr 0.00 in0.0 mm
01:30 PM 47.7°F8.7°C 41.5°F5.3°C 79% 5.1 mph WNW8.2 kmh WNW 7.0 mph11.3 kmh 30.38 in1028.8 mb 0.00 in0.0 mm 0.00 in/hr0.0 mm/hr 0.00 in0.0 mm
01:20 PM 47.7°F8.7°C 41.5°F5.3°C 79% 6.6 mph W10.6 kmh W 11.0 mph17.7 kmh 30.37 in1028.4 mb 0.00 in0.0 mm 0.00 in/hr0.0 mm/hr 0.00 in0.0 mm
01:10 PM 47.7°F8.7°C 41.2°F5.1°C 78% 8.6 mph W13.8 kmh W 14.0 mph22.5 kmh 30.37 in1028.4 mb 0.00 in0.0 mm 0.00 in/hr0.0 mm/hr 0.00 in0.0 mm
01:00 PM 47.5°F8.6°C 41.3°F5.2°C 79% 7.8 mph W12.6 kmh W 13.0 mph20.9 kmh 30.37 in1028.4 mb 0.00 in0.0 mm 0.00 in/hr0.0 mm/hr 0.00 in0.0 mm
12:50 PM 47.5°F8.6°C 41.3°F5.2°C 79% 6.2 mph W10.0 kmh W 17.0 mph27.4 kmh 30.37 in1028.4 mb 0.00 in0.0 mm 0.00 in/hr0.0 mm/hr 0.00 in0.0 mm
12:40 PM 47.5°F8.6°C 41.0°F5.0°C 78% 8.4 mph W13.5 kmh W 17.0 mph27.4 kmh 30.37 in1028.4 mb 0.00 in0.0 mm 0.00 in/hr0.0 mm/hr 0.00 in0.0 mm
12:30 PM 47.5°F8.6°C 41.3°F5.2°C 79% 8.5 mph WNW13.7 kmh WNW 15.0 mph24.1 kmh 30.37 in1028.4 mb 0.00 in0.0 mm 0.00 in/hr0.0 mm/hr 0.00 in0.0 mm
12:20 PM 47.6°F8.7°C 41.4°F5.2°C 79% 11.2 mph W18.0 kmh W 13.0 mph20.9 kmh 30.36 in1028.1 mb 0.00 in0.0 mm 0.00 in/hr0.0 mm/hr 0.00 in0.0 mm
12:10 PM 47.6°F8.7°C 41.1°F5.1°C 78% 10.3 mph W16.6 kmh W 15.0 mph24.1 kmh 30.36 in1028.1 mb 0.00 in0.0 mm 0.00 in/hr0.0 mm/hr 0.00 in0.0 mm
12:00 PM 47.6°F8.7°C 41.1°F5.1°C 78% 9.6 mph W15.4 kmh W 12.0 mph19.3 kmh 30.36 in1028.1 mb 0.00 in0.0 mm 0.00 in/hr0.0 mm/hr 0.00 in0.0 mm
11:50 AM 47.5°F8.6°C 41.3°F5.2°C 79% 6.9 mph W11.1 kmh W 13.0 mph20.9 kmh 30.36 in1028.1 mb 0.00 in0.0 mm 0.00 in/hr0.0 mm/hr 0.00 in0.0 mm
11:40 AM 47.3°F8.5°C 41.1°F5.1°C 79% 10.6 mph W17.1 kmh W 14.0 mph22.5 kmh 30.36 in1028.1 mb 0.00 in0.0 mm 0.00 in/hr0.0 mm/hr 0.00 in0.0 mm
11:30 AM 47.3°F8.5°C 40.8°F4.9°C 78% 10.7 mph W17.2 kmh W 18.0 mph29.0 kmh 30.35 in1027.8 mb 0.00 in0.0 mm 0.00 in/hr0.0 mm/hr 0.00 in0.0 mm
11:20 AM 47.4°F8.6°C 41.2°F5.1°C 79% 6.9 mph W11.1 kmh W 10.0 mph16.1 kmh 30.35 in1027.8 mb 0.00 in0.0 mm 0.00 in/hr0.0 mm/hr 0.00 in0.0 mm
11:10 AM 47.3°F8.5°C 41.1°F5.1°C 79% 7.9 mph W12.7 kmh W 18.0 mph29.0 kmh 30.35 in1027.8 mb 0.00 in0.0 mm 0.00 in/hr0.0 mm/hr 0.00 in0.0 mm
11:00 AM 47.2°F8.4°C 41.0°F5.0°C 79% 7.9 mph W12.7 kmh W 12.0 mph19.3 kmh 30.36 in1028.1 mb 0.00 in0.0 mm 0.00 in/hr0.0 mm/hr 0.00 in0.0 mm
10:50 AM 47.0°F8.3°C 40.5°F4.7°C 78% 9.5 mph WSW15.3 kmh WSW 13.0 mph20.9 kmh 30.36 in1028.1 mb 0.00 in0.0 mm 0.00 in/hr0.0 mm/hr 0.00 in0.0 mm
10:40 AM 47.1°F8.4°C 40.9°F4.9°C 79% 7.3 mph WSW11.7 kmh WSW 13.0 mph20.9 kmh 30.35 in1027.8 mb 0.00 in0.0 mm 0.00 in/hr0.0 mm/hr 0.00 in0.0 mm
10:30 AM 46.9°F8.3°C 40.7°F4.8°C 79% 9.8 mph W15.8 kmh W 11.0 mph17.7 kmh 30.35 in1027.8 mb 0.00 in0.0 mm 0.00 in/hr0.0 mm/hr 0.00 in0.0 mm
10:20 AM 46.8°F8.2°C 40.6°F4.8°C 79% 9.5 mph W15.3 kmh W 13.0 mph20.9 kmh 30.35 in1027.8 mb 0.00 in0.0 mm 0.00 in/hr0.0 mm/hr 0.00 in0.0 mm
10:10 AM 46.7°F8.2°C 40.5°F4.7°C 79% 10.8 mph W17.4 kmh W 16.0 mph25.7 kmh 30.34 in1027.4 mb 0.00 in0.0 mm 0.00 in/hr0.0 mm/hr 0.00 in0.0 mm
10:00 AM 46.7°F8.2°C 40.5°F4.7°C 79% 7.9 mph W12.7 kmh W 16.0 mph25.7 kmh 30.34 in1027.4 mb 0.00 in0.0 mm 0.00 in/hr0.0 mm/hr 0.00 in0.0 mm
09:50 AM 46.6°F8.1°C 40.4°F4.7°C 79% 8.4 mph W13.5 kmh W 14.0 mph22.5 kmh 30.34 in1027.4 mb 0.00 in0.0 mm 0.00 in/hr0.0 mm/hr 0.00 in0.0 mm
09:40 AM 46.5°F8.1°C 40.3°F4.6°C 79% 7.3 mph W11.7 kmh W 13.0 mph20.9 kmh 30.34 in1027.4 mb 0.00 in0.0 mm 0.00 in/hr0.0 mm/hr 0.00 in0.0 mm
09:30 AM 46.4°F8.0°C 40.2°F4.6°C 79% 3.6 mph WSW5.8 kmh WSW 6.0 mph9.7 kmh 30.34 in1027.4 mb 0.00 in0.0 mm 0.00 in/hr0.0 mm/hr 0.00 in0.0 mm
09:20 AM 46.2°F7.9°C 40.0°F4.4°C 79% 5.2 mph W8.4 kmh W 12.0 mph19.3 kmh 30.33 in1027.1 mb 0.00 in0.0 mm 0.00 in/hr0.0 mm/hr 0.00 in0.0 mm
09:10 AM 46.1°F7.8°C 40.3°F4.6°C 80% 5.9 mph W9.5 kmh W 13.0 mph20.9 kmh 30.33 in1027.1 mb 0.00 in0.0 mm 0.00 in/hr0.0 mm/hr 0.00 in0.0 mm
09:00 AM 46.2°F7.9°C 40.0°F4.4°C 79% 4.4 mph WSW7.1 kmh WSW 8.0 mph12.9 kmh 30.33 in1027.1 mb 0.00 in0.0 mm 0.00 in/hr0.0 mm/hr 0.00 in0.0 mm
08:50 AM 46.1°F7.8°C 40.3°F4.6°C 80% 6.5 mph WNW10.5 kmh WNW 10.0 mph16.1 kmh 30.32 in1026.8 mb 0.00 in0.0 mm 0.00 in/hr0.0 mm/hr 0.00 in0.0 mm
08:40 AM 46.1°F7.8°C 40.3°F4.6°C 80% 6.3 mph WSW10.1 kmh WSW 13.0 mph20.9 kmh 30.32 in1026.8 mb 0.00 in0.0 mm 0.00 in/hr0.0 mm/hr 0.00 in0.0 mm
08:30 AM 46.1°F7.8°C 40.3°F4.6°C 80% 7.3 mph WSW11.7 kmh WSW 12.0 mph19.3 kmh 30.31 in1026.4 mb 0.00 in0.0 mm 0.00 in/hr0.0 mm/hr 0.00 in0.0 mm
08:20 AM 46.2°F7.9°C 40.0°F4.4°C 79% 6.6 mph W10.6 kmh W 12.0 mph19.3 kmh 30.31 in1026.4 mb 0.00 in0.0 mm 0.00 in/hr0.0 mm/hr 0.00 in0.0 mm
08:10 AM 46.2°F7.9°C 39.7°F4.3°C 78% 8.9 mph W14.3 kmh W 15.0 mph24.1 kmh 30.30 in1026.1 mb 0.00 in0.0 mm 0.00 in/hr0.0 mm/hr 0.00 in0.0 mm
08:00 AM 46.2°F7.9°C 39.4°F4.1°C 77% 9.2 mph W14.8 kmh W 12.0 mph19.3 kmh 30.29 in1025.7 mb 0.00 in0.0 mm 0.00 in/hr0.0 mm/hr 0.00 in0.0 mm
07:50 AM 46.2°F7.9°C 39.7°F4.3°C 78% 10.5 mph WSW16.9 kmh WSW 19.0 mph30.6 kmh 30.29 in1025.7 mb 0.00 in0.0 mm 0.00 in/hr0.0 mm/hr 0.00 in0.0 mm
07:40 AM 46.1°F7.8°C 39.6°F4.2°C 78% 9.6 mph W15.4 kmh W 14.0 mph22.5 kmh 30.29 in1025.7 mb 0.00 in0.0 mm 0.00 in/hr0.0 mm/hr 0.00 in0.0 mm
07:30 AM 46.1°F7.8°C 39.9°F4.4°C 79% 8.8 mph W14.2 kmh W 17.0 mph27.4 kmh 30.29 in1025.7 mb 0.00 in0.0 mm 0.00 in/hr0.0 mm/hr 0.00 in0.0 mm
07:20 AM 46.1°F7.8°C 39.9°F4.4°C 79% 5.8 mph W9.3 kmh W 13.0 mph20.9 kmh 30.28 in1025.4 mb 0.00 in0.0 mm 0.00 in/hr0.0 mm/hr 0.00 in0.0 mm
07:10 AM 46.1°F7.8°C 40.0°F4.4°C 79% 8.5 mph W13.7 kmh W 14.0 mph22.5 kmh 30.28 in1025.4 mb 0.00 in0.0 mm 0.00 in/hr0.0 mm/hr 0.00 in0.0 mm
07:00 AM 46.1°F7.8°C 40.3°F4.6°C 80% 9.1 mph WSW14.6 kmh WSW 12.0 mph19.3 kmh 30.28 in1025.4 mb 0.00 in0.0 mm 0.00 in/hr0.0 mm/hr 0.00 in0.0 mm
06:50 AM 46.3°F7.9°C 40.5°F4.7°C 80% 9.2 mph W14.8 kmh W 22.0 mph35.4 kmh 30.28 in1025.4 mb 0.00 in0.0 mm 0.00 in/hr0.0 mm/hr 0.00 in0.0 mm
06:40 AM 46.4°F8.0°C 40.2°F4.6°C 79% 9.5 mph W15.3 kmh W 16.0 mph25.7 kmh 30.28 in1025.4 mb 0.00 in0.0 mm 0.00 in/hr0.0 mm/hr 0.00 in0.0 mm
06:30 AM 46.3°F7.9°C 40.1°F4.5°C 79% 6.2 mph W10.0 kmh W 19.0 mph30.6 kmh 30.28 in1025.4 mb 0.00 in0.0 mm 0.00 in/hr0.0 mm/hr 0.00 in0.0 mm
06:20 AM 46.2°F7.9°C 40.0°F4.4°C 79% 9.0 mph W14.5 kmh W 21.0 mph33.8 kmh 30.28 in1025.4 mb 0.00 in0.0 mm 0.00 in/hr0.0 mm/hr 0.00 in0.0 mm
06:10 AM 46.2°F7.9°C 40.0°F4.4°C 79% 7.8 mph W12.6 kmh W 11.0 mph17.7 kmh 30.28 in1025.4 mb 0.00 in0.0 mm 0.00 in/hr0.0 mm/hr 0.00 in0.0 mm
06:00 AM 46.2°F7.9°C 39.7°F4.3°C 78% 10.2 mph W16.4 kmh W 15.0 mph24.1 kmh 30.27 in1025.1 mb 0.00 in0.0 mm 0.00 in/hr0.0 mm/hr 0.00 in0.0 mm
05:50 AM 46.0°F7.8°C 39.6°F4.2°C 78% 5.6 mph W9.0 kmh W 8.0 mph12.9 kmh 30.27 in1025.1 mb 0.00 in0.0 mm 0.00 in/hr0.0 mm/hr 0.00 in0.0 mm
05:40 AM 45.8°F7.7°C 39.0°F3.9°C 77% 7.6 mph WNW12.2 kmh WNW 13.0 mph20.9 kmh 30.27 in1025.1 mb 0.00 in0.0 mm 0.00 in/hr0.0 mm/hr 0.00 in0.0 mm
05:30 AM 45.7°F7.6°C 39.5°F4.2°C 79% 4.3 mph NW6.9 kmh NW 8.0 mph12.9 kmh 30.26 in1024.7 mb 0.00 in0.0 mm 0.00 in/hr0.0 mm/hr 0.00 in0.0 mm
05:20 AM 45.5°F7.5°C 39.4°F4.1°C 79% 5.7 mph W9.2 kmh W 15.0 mph24.1 kmh 30.26 in1024.7 mb 0.00 in0.0 mm 0.00 in/hr0.0 mm/hr 0.00 in0.0 mm
05:10 AM 45.7°F7.6°C 39.6°F4.2°C 79% 5.7 mph W9.2 kmh W 13.0 mph20.9 kmh 30.26 in1024.7 mb 0.00 in0.0 mm 0.00 in/hr0.0 mm/hr 0.00 in0.0 mm
05:00 AM 46.0°F7.8°C 39.5°F4.2°C 78% 11.6 mph W18.7 kmh W 16.0 mph25.7 kmh 30.25 in1024.4 mb 0.00 in0.0 mm 0.00 in/hr0.0 mm/hr 0.00 in0.0 mm
04:50 AM 46.2°F7.9°C 39.3°F4.1°C 77% 10.0 mph W16.1 kmh W 14.0 mph22.5 kmh 30.26 in1024.7 mb 0.00 in0.0 mm 0.00 in/hr0.0 mm/hr 0.00 in0.0 mm
04:40 AM 46.4°F8.0°C 39.6°F4.2°C 77% 9.6 mph W15.4 kmh W 14.0 mph22.5 kmh 30.26 in1024.7 mb 0.00 in0.0 mm 0.00 in/hr0.0 mm/hr 0.00 in0.0 mm
04:30 AM 46.5°F8.1°C 39.3°F4.1°C 76% 12.7 mph WNW20.4 kmh WNW 25.0 mph40.2 kmh 30.25 in1024.4 mb 0.00 in0.0 mm 0.00 in/hr0.0 mm/hr 0.00 in0.0 mm
04:20 AM 46.4°F8.0°C 39.2°F4.0°C 76% 10.8 mph W17.4 kmh W 18.0 mph29.0 kmh 30.25 in1024.4 mb 0.00 in0.0 mm 0.00 in/hr0.0 mm/hr 0.00 in0.0 mm
04:10 AM 46.3°F7.9°C 39.1°F3.9°C 76% 11.1 mph WSW17.9 kmh WSW 25.0 mph40.2 kmh 30.25 in1024.4 mb 0.00 in0.0 mm 0.00 in/hr0.0 mm/hr 0.00 in0.0 mm
04:00 AM 46.4°F8.0°C 39.2°F4.0°C 76% 12.6 mph W20.3 kmh W 20.0 mph32.2 kmh 30.25 in1024.4 mb 0.00 in0.0 mm 0.00 in/hr0.0 mm/hr 0.00 in0.0 mm
03:50 AM 46.5°F8.1°C 39.7°F4.3°C 77% 13.9 mph W22.4 kmh W 32.0 mph51.5 kmh 30.25 in1024.4 mb 0.00 in0.0 mm 0.00 in/hr0.0 mm/hr 0.00 in0.0 mm
03:40 AM 46.5°F8.1°C 39.7°F4.3°C 77% 11.4 mph W18.3 kmh W 14.0 mph22.5 kmh 30.25 in1024.4 mb 0.00 in0.0 mm 0.00 in/hr0.0 mm/hr 0.00 in0.0 mm
03:30 AM 46.5°F8.1°C 40.0°F4.4°C 78% 8.3 mph W13.4 kmh W 20.0 mph32.2 kmh 30.25 in1024.4 mb 0.00 in0.0 mm 0.00 in/hr0.0 mm/hr 0.00 in0.0 mm
03:20 AM 46.5°F8.1°C 39.7°F4.3°C 77% 12.0 mph W19.3 kmh W 17.0 mph27.4 kmh 30.25 in1024.4 mb 0.00 in0.0 mm 0.00 in/hr0.0 mm/hr 0.00 in0.0 mm
03:10 AM 46.5°F8.1°C 39.7°F4.3°C 77% 8.6 mph W13.8 kmh W 13.0 mph20.9 kmh 30.26 in1024.7 mb 0.00 in0.0 mm 0.00 in/hr0.0 mm/hr 0.00 in0.0 mm
03:00 AM 46.3°F7.9°C 39.5°F4.2°C 77% 8.1 mph WSW13.0 kmh WSW 12.0 mph19.3 kmh 30.25 in1024.4 mb 0.00 in0.0 mm 0.00 in/hr0.0 mm/hr 0.00 in0.0 mm
02:50 AM 46.3°F7.9°C 39.5°F4.2°C 77% 9.3 mph WNW15.0 kmh WNW 15.0 mph24.1 kmh 30.25 in1024.4 mb 0.00 in0.0 mm 0.00 in/hr0.0 mm/hr 0.00 in0.0 mm
02:40 AM 46.3°F7.9°C 39.5°F4.2°C 77% 6.9 mph W11.1 kmh W 14.0 mph22.5 kmh 30.25 in1024.4 mb 0.00 in0.0 mm 0.00 in/hr0.0 mm/hr 0.00 in0.0 mm
02:30 AM 46.1°F7.8°C 39.0°F3.9°C 76% 10.7 mph W17.2 kmh W 19.0 mph30.6 kmh 30.25 in1024.4 mb 0.00 in0.0 mm 0.00 in/hr0.0 mm/hr 0.00 in0.0 mm
02:20 AM 45.7°F7.6°C 38.9°F3.8°C 77% 11.8 mph W19.0 kmh W 16.0 mph25.7 kmh 30.25 in1024.4 mb 0.00 in0.0 mm 0.00 in/hr0.0 mm/hr 0.00 in0.0 mm
02:10 AM 45.4°F7.4°C 38.9°F3.8°C 78% 8.4 mph WSW13.5 kmh WSW 16.0 mph25.7 kmh 30.25 in1024.4 mb 0.00 in0.0 mm 0.00 in/hr0.0 mm/hr 0.00 in0.0 mm
02:00 AM 45.5°F7.5°C 39.4°F4.1°C 79% 8.0 mph WNW12.9 kmh WNW 15.0 mph24.1 kmh 30.26 in1024.7 mb 0.00 in0.0 mm 0.00 in/hr0.0 mm/hr 0.00 in0.0 mm
01:50 AM 45.2°F7.3°C 39.4°F4.1°C 80% 3.7 mph W6.0 kmh W 7.0 mph11.3 kmh 30.26 in1024.7 mb 0.00 in0.0 mm 0.00 in/hr0.0 mm/hr 0.00 in0.0 mm
01:40 AM 44.8°F7.1°C 39.0°F3.9°C 80% 5.0 mph WNW8.0 kmh WNW 11.0 mph17.7 kmh 30.26 in1024.7 mb 0.00 in0.0 mm 0.00 in/hr0.0 mm/hr 0.00 in0.0 mm
01:30 AM 45.0°F7.2°C 39.2°F4.0°C 80% 7.0 mph W11.3 kmh W 9.0 mph14.5 kmh 30.26 in1024.7 mb 0.00 in0.0 mm 0.00 in/hr0.0 mm/hr 0.00 in0.0 mm
01:20 AM 45.1°F7.3°C 39.3°F4.1°C 80% 8.6 mph NW13.8 kmh NW 12.0 mph19.3 kmh 30.25 in1024.4 mb 0.00 in0.0 mm 0.00 in/hr0.0 mm/hr 0.00 in0.0 mm
01:10 AM 45.3°F7.4°C 39.5°F4.2°C 80% 8.8 mph W14.2 kmh W 12.0 mph19.3 kmh 30.25 in1024.4 mb 0.00 in0.0 mm 0.00 in/hr0.0 mm/hr 0.00 in0.0 mm
01:00 AM 45.1°F7.3°C 39.3°F4.1°C 80% 9.9 mph WSW15.9 kmh WSW 16.0 mph25.7 kmh 30.25 in1024.4 mb 0.00 in0.0 mm 0.00 in/hr0.0 mm/hr 0.00 in0.0 mm
12:50 AM 45.1°F7.3°C 39.6°F4.2°C 81% 9.2 mph WSW14.8 kmh WSW 19.0 mph30.6 kmh 30.25 in1024.4 mb 0.00 in0.0 mm 0.00 in/hr0.0 mm/hr 0.00 in0.0 mm
12:40 AM 45.0°F7.2°C 39.8°F4.3°C 82% 12.8 mph WSW20.6 kmh WSW 18.0 mph29.0 kmh 30.25 in1024.4 mb 0.00 in0.0 mm 0.00 in/hr0.0 mm/hr 0.00 in0.0 mm
12:30 AM 44.9°F7.2°C 39.7°F4.3°C 82% 9.2 mph WSW14.8 kmh WSW 10.0 mph16.1 kmh 30.25 in1024.4 mb 0.00 in0.0 mm 0.00 in/hr0.0 mm/hr 0.00 in0.0 mm
12:20 AM 44.7°F7.1°C 39.9°F4.4°C 83% 7.3 mph WSW11.7 kmh WSW 12.0 mph19.3 kmh 30.25 in1024.4 mb 0.00 in0.0 mm 0.00 in/hr0.0 mm/hr 0.00 in0.0 mm
12:10 AM 44.7°F7.1°C 40.1°F4.5°C 84% 9.1 mph W14.6 kmh W 14.0 mph22.5 kmh 30.24 in1024.0 mb 0.00 in0.0 mm 0.00 in/hr0.0 mm/hr 0.00 in0.0 mm
12:00 AM 44.7°F7.1°C 40.2°F4.6°C 84% 7.5 mph W12.1 kmh W 11.0 mph17.7 kmh 30.24 in1024.0 mb 0.00 in0.0 mm 0.00 in/hr0.0 mm/hr 0.00 in0.0 mm